createdAt,value
2023-04-01T00:00:55.324Z,100128.97
2023-04-01T00:03:30.593Z,100129.44
2023-04-01T00:06:22.035Z,100128.56
2023-04-01T00:09:38.884Z,100124.72
2023-04-01T00:12:12.897Z,100125.22
2023-04-01T00:14:54.968Z,100129.59
2023-04-01T00:17:24.261Z,100130.81
2023-04-01T00:19:57.293Z,100141.16
2023-04-01T00:22:35.700Z,100128.47
2023-04-01T00:25:52.129Z,100132.00
2023-04-01T00:34:29.941Z,100123.91
2023-04-01T00:42:24.570Z,100128.25
2023-04-01T00:45:07.892Z,100139.09
2023-04-01T00:52:53.155Z,100138.53
2023-04-01T00:57:41.021Z,100141.81
2023-04-01T01:06:28.261Z,100144.50
2023-04-01T01:08:41.427Z,100145.19
2023-04-01T01:11:25.274Z,100145.31
2023-04-01T01:14:27.504Z,100140.47
2023-04-01T01:17:32.989Z,100139.78
2023-04-01T01:20:34.648Z,100152.78
2023-04-01T01:23:09.064Z,100154.31
2023-04-01T01:26:14.273Z,100150.56
2023-04-01T01:29:30.171Z,100144.53
2023-04-01T01:32:23.148Z,100146.03
2023-04-01T01:35:18.762Z,100150.28
2023-04-01T01:37:51.452Z,100143.00
2023-04-01T01:40:22.382Z,100148.31
2023-04-01T01:42:59.004Z,100152.53
2023-04-01T01:45:29.390Z,100158.94
2023-04-01T01:48:00.201Z,100151.34
2023-04-01T01:50:29.408Z,100160.97
2023-04-01T01:53:03.306Z,100147.66
2023-04-01T01:55:34.510Z,100153.53
2023-04-01T01:58:11.841Z,100155.63
2023-04-01T02:00:52.002Z,100156.00
2023-04-01T02:03:24.788Z,100160.88
2023-04-01T02:06:02.688Z,100157.53
2023-04-01T02:08:46.111Z,100172.44
2023-04-01T02:11:21.453Z,100173.97
2023-04-01T02:14:08.468Z,100170.38
2023-04-01T02:17:01.419Z,100165.03
2023-04-01T02:23:03.720Z,100178.31
2023-04-01T02:25:36.741Z,100181.09
2023-04-01T02:28:11.669Z,100181.38
2023-04-01T02:30:44.298Z,100187.94
2023-04-01T02:33:21.611Z,100189.03
2023-04-01T02:35:50.278Z,100189.88
2023-04-01T02:38:19.276Z,100198.66
2023-04-01T02:40:58.432Z,100193.81
2023-04-01T02:43:28.255Z,100194.75
2023-04-01T02:46:03.044Z,100197.19
2023-04-01T02:48:35.366Z,100194.66
2023-04-01T02:51:04.105Z,100198.19
2023-04-01T02:53:34.222Z,100190.50
2023-04-01T02:56:02.598Z,100194.72
2023-04-01T02:58:32.327Z,100206.50
2023-04-01T03:01:01.754Z,100194.25
2023-04-01T03:03:31.547Z,100215.09
2023-04-01T03:06:11.064Z,100210.22
2023-04-01T03:08:39.549Z,100204.97
2023-04-01T03:11:11.494Z,100207.03
2023-04-01T03:13:45.644Z,100201.50
2023-04-01T03:16:15.706Z,100209.91
2023-04-01T03:18:44.820Z,100200.34
2023-04-01T03:21:17.002Z,100201.44
2023-04-01T03:23:45.627Z,100214.28
2023-04-01T03:26:14.841Z,100210.81
2023-04-01T03:28:44.994Z,100212.88
2023-04-01T03:31:13.897Z,100217.50
2023-04-01T03:33:49.128Z,100217.38
2023-04-01T03:36:18.191Z,100222.09
2023-04-01T03:38:48.033Z,100220.47
2023-04-01T03:41:21.962Z,100223.88
2023-04-01T03:43:50.906Z,100223.88
2023-04-01T03:46:20.757Z,100220.41
2023-04-01T03:48:49.474Z,100225.75
2023-04-01T03:51:17.505Z,100224.56
2023-04-01T03:53:46.571Z,100219.13
2023-04-01T03:56:14.780Z,100217.34
2023-04-01T03:58:46.415Z,100214.75
2023-04-01T04:01:22.129Z,100218.13
2023-04-01T04:03:57.544Z,100216.22
2023-04-01T04:06:27.613Z,100220.38
2023-04-01T04:08:56.830Z,100215.66
2023-04-01T04:11:25.205Z,100226.25
2023-04-01T04:14:00.045Z,100232.00
2023-04-01T04:16:29.144Z,100231.03
2023-04-01T04:19:04.174Z,100240.34
2023-04-01T04:21:34.992Z,100229.00
2023-04-01T04:24:06.860Z,100237.72
2023-04-01T04:26:55.912Z,100232.50
2023-04-01T04:29:24.912Z,100230.09
2023-04-01T04:31:56.260Z,100229.09
2023-04-01T04:34:30.769Z,100235.34
2023-04-01T04:36:59.561Z,100242.19
2023-04-01T04:39:34.178Z,100224.50
2023-04-01T04:42:02.671Z,100237.34
2023-04-01T04:44:35.026Z,100244.50
2023-04-01T04:47:04.230Z,100241.69
2023-04-01T04:49:35.077Z,100240.84
2023-04-01T04:52:08.258Z,100241.81
2023-04-01T04:54:37.042Z,100242.44
2023-04-01T04:57:07.336Z,100248.53
2023-04-01T04:59:42.542Z,100257.41
2023-04-01T05:02:32.911Z,100257.16
2023-04-01T05:05:01.672Z,100255.47
2023-04-01T05:07:32.531Z,100247.59
2023-04-01T05:10:01.458Z,100256.22
2023-04-01T05:12:31.920Z,100251.75
2023-04-01T05:15:04.106Z,100256.94
2023-04-01T05:17:34.769Z,100261.75
2023-04-01T05:20:05.274Z,100252.91
2023-04-01T05:22:33.455Z,100253.75
2023-04-01T05:25:04.282Z,100253.03
2023-04-01T05:27:33.151Z,100252.00
2023-04-01T05:30:04.634Z,100253.91
2023-04-01T05:32:56.998Z,100240.78
2023-04-01T05:35:26.277Z,100242.31
2023-04-01T05:37:54.638Z,100259.69
2023-04-01T05:40:23.631Z,100238.56
2023-04-01T05:42:52.012Z,100246.41
2023-04-01T05:45:20.792Z,100242.66
2023-04-01T05:48:11.176Z,100247.03
2023-04-01T05:50:45.364Z,100242.47
2023-04-01T05:53:15.638Z,100255.94
2023-04-01T05:55:45.455Z,100243.81
2023-04-01T05:58:13.730Z,100257.38
2023-04-01T06:00:46.467Z,100267.88
2023-04-01T06:03:32.435Z,100258.94
2023-04-01T06:06:04.648Z,100258.03
2023-04-01T06:08:35.482Z,100263.13
2023-04-01T06:11:26.641Z,100264.03
2023-04-01T06:14:24.568Z,100271.84
2023-04-01T06:17:17.422Z,100270.28
2023-04-01T06:20:13.489Z,100288.25
2023-04-01T06:22:50.810Z,100277.75
2023-04-01T06:25:38.549Z,100283.50
2023-04-01T06:28:45.969Z,100294.19
2023-04-01T06:31:19.929Z,100287.16
2023-04-01T06:34:31.152Z,100290.56
2023-04-01T06:37:37.433Z,100310.84
2023-04-01T06:40:14.215Z,100308.28
2023-04-01T06:43:21.072Z,100309.59
2023-04-01T06:46:31.745Z,100309.50
2023-04-01T06:49:44.664Z,100315.25
2023-04-01T06:52:55.436Z,100315.78
2023-04-01T06:55:57.225Z,100320.03
2023-04-01T06:59:13.806Z,100313.50
2023-04-01T07:01:50.024Z,100319.41
2023-04-01T07:04:33.102Z,100321.16
2023-04-01T07:07:43.861Z,100322.59
2023-04-01T07:10:20.944Z,100332.19
2023-04-01T07:13:16.269Z,100327.03
2023-04-01T07:16:35.960Z,100324.75
2023-04-01T07:19:27.220Z,100331.72
2023-04-01T07:22:11.960Z,100332.97
2023-04-01T07:25:15.140Z,100338.09
2023-04-01T07:27:47.552Z,100324.31
2023-04-01T07:30:31.113Z,100330.09
2023-04-01T07:33:18.573Z,100331.66
2023-04-01T07:36:15.115Z,100328.50
2023-04-01T07:39:00.687Z,100329.25
2023-04-01T07:42:09.875Z,100321.94
2023-04-01T07:44:47.128Z,100317.59
2023-04-01T07:47:39.808Z,100322.97
2023-04-01T07:50:18.873Z,100331.53
2023-04-01T07:53:10.153Z,100328.72
2023-04-01T07:55:45.085Z,100329.41
2023-04-01T07:58:25.847Z,100323.59
2023-04-01T08:01:12.335Z,100320.97
2023-04-01T08:03:59.956Z,100332.16
2023-04-01T08:06:52.313Z,100335.03
2023-04-01T08:09:38.463Z,100338.06
2023-04-01T08:12:36.788Z,100336.50
2023-04-01T08:15:58.858Z,100333.66
2023-04-01T08:18:52.800Z,100340.75
2023-04-01T08:21:32.956Z,100340.66
2023-04-01T08:24:12.706Z,100349.88
2023-04-01T08:26:52.029Z,100336.88
2023-04-01T08:29:25.001Z,100341.22
2023-04-01T08:32:05.127Z,100341.22
2023-04-01T08:34:43.684Z,100336.00
2023-04-01T08:37:27.174Z,100336.47
2023-04-01T08:40:03.072Z,100340.25
2023-04-01T08:43:03.766Z,100338.81
2023-04-01T08:45:56.812Z,100346.78
2023-04-01T08:48:49.091Z,100336.00
2023-04-01T08:51:46.359Z,100333.44
2023-04-01T08:54:48.225Z,100326.53
2023-04-01T08:57:53.443Z,100334.69
2023-04-01T09:01:14.572Z,100337.53
2023-04-01T09:04:03.440Z,100330.72
2023-04-01T09:06:50.459Z,100327.00
2023-04-01T09:09:39.438Z,100331.88
2023-04-01T09:12:41.779Z,100331.69
2023-04-01T09:15:36.980Z,100328.56
2023-04-01T09:18:38.915Z,100332.97
2023-04-01T09:21:19.730Z,100334.22
2023-04-01T09:24:18.694Z,100333.53
2023-04-01T09:27:01.803Z,100337.78
2023-04-01T09:29:32.690Z,100323.91
2023-04-01T09:32:12.508Z,100327.81
2023-04-01T09:35:12.347Z,100323.78
2023-04-01T09:38:18.812Z,100327.59
2023-04-01T09:41:13.731Z,100333.09
2023-04-01T09:44:20.791Z,100341.06
2023-04-01T09:47:56.404Z,100330.91
2023-04-01T09:51:04.297Z,100336.31
2023-04-01T09:53:35.042Z,100338.16
2023-04-01T09:56:16.024Z,100344.34
2023-04-01T09:58:59.155Z,100339.09
2023-04-01T10:02:18.933Z,100345.75
2023-04-01T10:05:06.308Z,100357.28
2023-04-01T10:07:58.469Z,100344.56
2023-04-01T10:11:00.586Z,100345.28
2023-04-01T10:13:47.148Z,100334.13
2023-04-01T10:16:33.286Z,100345.75
2023-04-01T10:19:19.632Z,100338.25
2023-04-01T10:21:56.557Z,100333.28
2023-04-01T10:24:39.469Z,100343.97
2023-04-01T10:27:34.632Z,100340.34
2023-04-01T10:30:45.612Z,100341.63
2023-04-01T10:34:02.340Z,100334.31
2023-04-01T10:37:33.823Z,100329.84
2023-04-01T10:40:31.002Z,100323.56
2023-04-01T10:43:58.879Z,100316.41
2023-04-01T10:46:35.677Z,100321.66
2023-04-01T10:49:22.133Z,100315.47
2023-04-01T10:52:14.282Z,100319.72
2023-04-01T10:55:24.684Z,100312.66
2023-04-01T10:58:43.713Z,100300.66
2023-04-01T11:02:10.019Z,100308.66
2023-04-01T11:05:26.669Z,100303.53
2023-04-01T11:08:17.925Z,100304.78
2023-04-01T11:10:51.949Z,100297.94
2023-04-01T11:13:37.913Z,100304.78
2023-04-01T11:16:34.010Z,100298.34
2023-04-01T11:19:20.964Z,100304.38
2023-04-01T11:22:07.049Z,100307.09
2023-04-01T11:24:47.262Z,100301.53
2023-04-01T11:28:03.989Z,100311.16
2023-04-01T11:30:50.487Z,100308.56
2023-04-01T11:33:21.407Z,100309.19
2023-04-01T11:36:14.324Z,100308.97
2023-04-01T11:39:06.667Z,100308.16
2023-04-01T11:41:53.010Z,100311.59
2023-04-01T11:45:08.995Z,100317.41
2023-04-01T11:48:06.560Z,100322.53
2023-04-01T11:50:49.291Z,100316.94
2023-04-01T11:53:37.287Z,100318.56
2023-04-01T11:56:24.253Z,100317.09
2023-04-01T11:59:18.280Z,100322.53
2023-04-01T12:02:01.845Z,100320.41
2023-04-01T12:04:44.852Z,100325.56
2023-04-01T12:08:00.911Z,100321.91
2023-04-01T12:11:05.206Z,100325.94
2023-04-01T12:13:41.334Z,100327.50
2023-04-01T12:16:11.977Z,100325.47
2023-04-01T12:19:04.076Z,100318.88
2023-04-01T12:21:44.250Z,100313.84
2023-04-01T12:24:50.665Z,100316.56
2023-04-01T12:27:24.705Z,100326.16
2023-04-01T12:29:55.836Z,100317.00
2023-04-01T12:32:39.571Z,100316.72
2023-04-01T12:35:13.169Z,100315.13
2023-04-01T12:37:45.209Z,100318.44
2023-04-01T12:40:34.505Z,100326.16
2023-04-01T12:43:14.212Z,100318.25
2023-04-01T12:46:09.339Z,100312.50
2023-04-01T12:49:11.419Z,100310.75
2023-04-01T12:51:57.813Z,100315.44
2023-04-01T12:54:48.078Z,100312.81
2023-04-01T12:57:15.996Z,100310.75
2023-04-01T12:59:55.625Z,100312.00
2023-04-01T13:02:59.421Z,100313.69
2023-04-01T13:05:39.119Z,100306.44
2023-04-01T13:08:17.157Z,100302.16
2023-04-01T13:10:51.553Z,100306.97
2023-04-01T13:14:11.971Z,100314.47
2023-04-01T13:17:11.073Z,100298.25
2023-04-01T13:20:13.767Z,100297.41
2023-04-01T13:23:12.649Z,100303.09
2023-04-01T13:25:40.514Z,100287.81
2023-04-01T13:28:17.431Z,100288.34
2023-04-01T13:30:56.944Z,100291.66
2023-04-01T13:33:48.317Z,100289.88
2023-04-01T13:36:33.986Z,100290.03
2023-04-01T13:39:35.050Z,100295.06
2023-04-01T13:42:26.257Z,100290.66
2023-04-01T13:45:16.545Z,100284.13
2023-04-01T13:48:06.119Z,100284.97
2023-04-01T13:50:58.030Z,100295.19
2023-04-01T13:53:36.005Z,100294.66
2023-04-01T13:56:23.802Z,100287.84
2023-04-01T13:59:15.760Z,100286.31
2023-04-01T14:01:44.115Z,100281.72
2023-04-01T14:04:39.076Z,100282.56
2023-04-01T14:07:23.561Z,100280.13
2023-04-01T14:10:05.955Z,100272.19
2023-04-01T14:12:53.453Z,100273.47
2023-04-01T14:15:50.875Z,100265.56
2023-04-01T14:18:34.093Z,100264.91
2023-04-01T14:21:02.106Z,100269.13
2023-04-01T14:24:00.754Z,100270.94
2023-04-01T14:26:49.624Z,100271.78
2023-04-01T14:29:33.219Z,100281.16
2023-04-01T14:32:16.695Z,100273.03
2023-04-01T14:35:15.863Z,100269.41
2023-04-01T14:37:49.432Z,100265.72
2023-04-01T14:40:29.043Z,100270.84
2023-04-01T14:42:56.616Z,100263.84
2023-04-01T14:45:46.132Z,100263.16
2023-04-01T14:48:28.943Z,100265.91
2023-04-01T14:51:04.606Z,100257.91
2023-04-01T14:53:39.702Z,100259.78
2023-04-01T14:56:07.628Z,100256.19
2023-04-01T14:59:01.456Z,100255.59
2023-04-01T15:01:50.670Z,100257.00
2023-04-01T15:04:39.973Z,100258.06
2023-04-01T15:07:28.834Z,100255.75
2023-04-01T15:10:11.923Z,100259.25
2023-04-01T15:12:54.722Z,100252.13
2023-04-01T15:15:46.055Z,100254.75
2023-04-01T15:18:51.077Z,100242.41
2023-04-01T15:22:00.852Z,100236.19
2023-04-01T15:24:49.130Z,100235.34
2023-04-01T15:27:26.291Z,100219.50
2023-04-01T15:30:18.913Z,100233.34
2023-04-01T15:33:15.101Z,100230.06
2023-04-01T15:36:20.402Z,100229.97
2023-04-01T15:38:54.396Z,100228.44
2023-04-01T15:41:43.027Z,100232.34
2023-04-01T15:44:39.453Z,100233.63
2023-04-01T15:47:27.279Z,100226.63
2023-04-01T15:50:10.023Z,100227.47
2023-04-01T15:52:50.637Z,100233.78
2023-04-01T15:55:18.134Z,100242.47
2023-04-01T15:58:02.086Z,100236.44
2023-04-01T16:00:32.837Z,100229.47
2023-04-01T16:03:38.819Z,100240.63
2023-04-01T16:06:15.550Z,100249.75
2023-04-01T16:08:58.516Z,100258.94
2023-04-01T16:11:41.859Z,100266.41
2023-04-01T16:14:42.603Z,100262.41
2023-04-01T16:17:32.229Z,100262.75
2023-04-01T16:20:02.893Z,100261.84
2023-04-01T16:22:38.614Z,100257.75
2023-04-01T16:25:37.647Z,100255.53
2023-04-01T16:28:37.070Z,100254.69
2023-04-01T16:31:04.846Z,100252.44
2023-04-01T16:33:41.704Z,100243.16
2023-04-01T16:36:57.254Z,100245.97
2023-04-01T16:39:47.615Z,100245.44
2023-04-01T16:42:36.394Z,100254.53
2023-04-01T16:45:37.825Z,100264.94
2023-04-01T16:48:17.094Z,100269.72
2023-04-01T16:50:54.991Z,100273.25
2023-04-01T16:53:41.977Z,100267.16
2023-04-01T16:56:14.984Z,100276.00
2023-04-01T16:59:07.718Z,100271.50
2023-04-01T17:02:02.980Z,100275.16
2023-04-01T17:04:40.276Z,100269.13
2023-04-01T17:07:20.379Z,100271.78
2023-04-01T17:09:59.324Z,100269.03
2023-04-01T17:12:45.301Z,100276.78
2023-04-01T17:15:45.583Z,100270.75
2023-04-01T17:18:35.233Z,100269.91
2023-04-01T17:21:20.106Z,100264.94
2023-04-01T17:24:07.268Z,100274.63
2023-04-01T17:26:46.608Z,100276.59
2023-04-01T17:29:53.166Z,100275.19
2023-04-01T17:32:42.932Z,100275.34
2023-04-01T17:35:15.520Z,100282.56
2023-04-01T17:38:04.474Z,100286.91
2023-04-01T17:40:44.955Z,100280.22
2023-04-01T17:43:42.830Z,100290.91
2023-04-01T17:46:38.502Z,100289.59
2023-04-01T17:49:20.457Z,100281.47
2023-04-01T17:52:17.598Z,100290.59
2023-04-01T17:55:47.360Z,100288.81
2023-04-01T17:58:22.282Z,100296.22
2023-04-01T18:01:16.235Z,100298.09
2023-04-01T18:04:04.109Z,100300.91
2023-04-01T18:06:56.655Z,100302.59
2023-04-01T18:09:36.893Z,100311.72
2023-04-01T18:12:17.919Z,100312.88
2023-04-01T18:15:04.396Z,100316.56
2023-04-01T18:17:49.694Z,100309.84
2023-04-01T18:20:56.730Z,100299.63
2023-04-01T18:23:49.383Z,100303.97
2023-04-01T18:26:39.260Z,100291.00
2023-04-01T18:29:35.282Z,100295.44
2023-04-01T18:32:12.080Z,100294.50
2023-04-01T18:35:10.424Z,100289.47
2023-04-01T18:37:47.318Z,100292.44
2023-04-01T18:40:30.580Z,100291.00
2023-04-01T18:43:03.961Z,100290.34
2023-04-01T18:45:41.961Z,100292.25
2023-04-01T18:48:44.748Z,100290.72
2023-04-01T18:51:39.626Z,100288.38
2023-04-01T18:54:46.405Z,100288.66
2023-04-01T18:57:21.320Z,100294.06
2023-04-01T19:00:05.892Z,100288.25
2023-04-01T19:02:47.117Z,100299.91
2023-04-01T19:05:33.317Z,100292.13
2023-04-01T19:08:16.076Z,100301.09
2023-04-01T19:11:13.328Z,100294.19
2023-04-01T19:13:46.708Z,100282.97
2023-04-01T19:16:45.203Z,100281.28
2023-04-01T19:19:44.076Z,100295.19
2023-04-01T19:22:39.580Z,100291.84
2023-04-01T19:25:22.744Z,100296.06
2023-04-01T19:28:02.990Z,100296.81
2023-04-01T19:30:50.643Z,100290.66
2023-04-01T19:33:44.602Z,100293.41
2023-04-01T19:36:52.727Z,100295.34
2023-04-01T19:39:29.768Z,100299.03
2023-04-01T19:42:12.611Z,100300.03
2023-04-01T19:45:16.622Z,100286.94
2023-04-01T19:48:36.987Z,100299.19
2023-04-01T19:51:21.259Z,100278.16
2023-04-01T19:54:12.066Z,100287.94
2023-04-01T19:57:00.148Z,100287.88
2023-04-01T20:00:35.811Z,100295.75
2023-04-01T20:03:48.539Z,100311.78
2023-04-01T20:06:38.869Z,100304.91
2023-04-01T20:09:44.158Z,100310.09
2023-04-01T20:12:29.193Z,100304.84
2023-04-01T20:15:06.473Z,100297.19
2023-04-01T20:21:40.298Z,100308.66
2023-04-01T20:24:26.708Z,100305.25
2023-04-01T20:27:09.017Z,100301.97
2023-04-01T20:30:08.932Z,100308.22
2023-04-01T20:33:08.297Z,100302.97
2023-04-01T20:35:47.529Z,100299.69
2023-04-01T20:38:37.843Z,100303.91
2023-04-01T20:41:28.751Z,100305.72
2023-04-01T20:44:15.775Z,100307.50
2023-04-01T20:47:38.287Z,100298.09
2023-04-01T20:50:18.592Z,100298.09
2023-04-01T20:53:47.314Z,100284.19
2023-04-01T20:59:35.234Z,100294.25
2023-04-01T21:02:44.123Z,100283.88
2023-04-01T21:05:50.427Z,100292.75
2023-04-01T21:08:41.589Z,100287.56
2023-04-01T21:11:31.939Z,100290.38
2023-04-01T21:14:30.825Z,100289.66
2023-04-01T21:17:21.929Z,100286.25
2023-04-01T21:19:58.483Z,100284.63
2023-04-01T21:22:38.850Z,100274.19
2023-04-01T21:25:33.337Z,100284.63
2023-04-01T21:28:39.197Z,100279.69
2023-04-01T21:31:34.841Z,100274.56
2023-04-01T21:34:45.092Z,100283.25
2023-04-01T21:37:48.054Z,100287.50
2023-04-01T21:40:29.127Z,100279.69
2023-04-01T21:43:25.041Z,100276.91
2023-04-01T21:45:57.688Z,100281.25
2023-04-01T21:48:45.778Z,100278.88
2023-04-01T21:51:56.874Z,100278.78
2023-04-01T21:55:13.489Z,100271.84
2023-04-01T21:58:10.407Z,100267.34
2023-04-01T22:01:28.072Z,100276.91
2023-04-01T22:04:34.628Z,100271.75
2023-04-01T22:07:16.429Z,100271.00
2023-04-01T22:10:18.492Z,100268.28
2023-04-01T22:20:57.262Z,100268.28
2023-04-01T22:24:11.469Z,100253.69
2023-04-01T22:27:26.452Z,100256.25
2023-04-01T22:30:18.078Z,100243.22
2023-04-01T22:33:03.826Z,100250.16
2023-04-01T22:35:48.567Z,100243.22
2023-04-01T22:39:00.265Z,100237.03
2023-04-01T22:41:52.650Z,100236.13
2023-04-01T22:44:42.492Z,100239.50
2023-04-01T22:47:43.768Z,100238.81
2023-04-01T22:50:40.041Z,100240.50
2023-04-01T22:53:27.675Z,100226.72
2023-04-01T22:56:04.858Z,100239.72
2023-04-01T22:58:50.610Z,100236.03
2023-04-01T23:01:28.757Z,100232.56
2023-04-01T23:04:27.641Z,100239.41
2023-04-01T23:07:38.936Z,100232.31
2023-04-01T23:10:23.165Z,100235.84
2023-04-01T23:12:56.059Z,100235.06
2023-04-01T23:15:36.509Z,100220.44
2023-04-01T23:18:15.416Z,100220.38
2023-04-01T23:21:08.478Z,100216.97
2023-04-01T23:23:54.661Z,100228.16
2023-04-01T23:26:34.557Z,100224.56
2023-04-01T23:29:09.086Z,100221.94
2023-04-01T23:31:41.018Z,100227.13
2023-04-01T23:34:18.004Z,100226.28
2023-04-01T23:36:56.942Z,100223.72
2023-04-01T23:39:42.832Z,100220.19
2023-04-01T23:42:41.601Z,100227.06
2023-04-01T23:45:21.318Z,100222.53
2023-04-01T23:47:59.942Z,100224.34
2023-04-01T23:50:29.790Z,100228.56
2023-04-01T23:53:04.001Z,100232.19
2023-04-01T23:55:34.805Z,100230.34
2023-04-01T23:58:09.667Z,100224.50
